Impacts METAR Board
IDs:

KERV - Kerrville Muni, TX, US

Updated at: 1800 UTC 16 Oct 2021
Potential Impact None Slight Moderate High
Time 16/06Z 16/07Z 16/08Z 16/09Z 16/10Z 16/11Z 16/12Z 16/13Z 16/14Z 16/15Z 16/16Z 16/17Z 16/18Z
Temp61 59 57 56 56 54 51 51 55 60 63 65 68
Dewpt47 44 44 42 43 42 41 44 44 39 36 34 37
Altim30.28 30.29 30.30 30.29 30.30 30.32 30.34 30.36 30.38 30.41 30.41 30.41 30.39
VIS10 10 10 10 10 10 10 10 10 10 10 10 10
CIG-- -- -- -- -- -- -- -- -- -- -- -- --
CoverCLRCLRCLRCLRCLRCLRCLRCLRCLRCLRCLRCLRCLR
FltCatVFRVFRVFRVFRVFRVFRVFRVFRVFRVFRVFRVFRVFR
WX--------------------------
WDir3601010103503603503401030604040
WSpd10 6 6 7 7 6 4 4 4 11 10 9 10
WGst15 -- -- -- -- -- -- -- -- -- 15 19 14
Raw hourly METARs
KERV 160555Z AUTO 36010G15KT 10SM CLR 16/08 A3028 RMK AO2 T01620083 10220 20162 402950162
KERV 160655Z AUTO 01006KT 10SM CLR 15/07 A3029 RMK AO2 T01480066
KERV 160755Z AUTO 01006KT 10SM CLR 14/07 A3030 RMK AO2 T01380067
KERV 160855Z AUTO 01007KT 10SM CLR 14/05 A3029 RMK AO2 T01350054
KERV 160955Z AUTO 35007KT 10SM CLR 14/06 A3030 RMK AO2 T01350061
KERV 161055Z AUTO 36006KT 10SM CLR 12/06 A3032 RMK AO2 T01200055
KERV 161155Z AUTO 35004KT 10SM CLR 11/05 A3034 RMK AO2 T01060051 10161 20106
KERV 161255Z AUTO 34004KT 10SM CLR 11/06 A3036 RMK AO2 T01060064
KERV 161355Z AUTO 01004KT 10SM CLR 13/07 A3038 RMK AO2 T01300066
KERV 161455Z AUTO 03011KT 10SM CLR 16/04 A3041 RMK AO2 T01560038
KERV 161555Z AUTO 06010G15KT 020V080 10SM CLR 17/02 A3041 RMK AO2 T01710020
KERV 161655Z AUTO 04009G19KT 10SM CLR 18/01 A3041 RMK AO2 T01840010
KERV 161755Z AUTO 04010G14KT 10SM CLR 20/03 A3039 RMK AO2 T02000028 10200 20092